• Join FlightAware (Why Join?)
  • Login
  • US Flag 
10:30PM EDT


 

Airport Tracker/Info


-or-


 

Live Flight TrackerFlight Track Log ✈ ELJ112 ✈ 14-Apr-2014 ✈ KOPF - KCVG

Flight Track Log - Related Links

Times and Time Zones

All times are in EDT time to prevent confusion due to time zone crossing. See the ELJ112 flight status page for this flight to view local times or setup timezone preferences in your user account.

Time Position Orientation Groundspeed Altitude Reporting Facility
EDT Latitude Longitude Course Direction KTS MPH feet Rate Location/Type
09:55AM 25.8983 -80.2750 92° East 168 193 400  Level Miami Center
09:55AM 25.8972 -80.2403 92° East 211 243 1,600 1,800 Climbing Miami Center
09:56AM 25.9400 -80.1931 45° Northeast 279 321 3,400 2,340 Climbing Miami Center
09:57AM 25.9803 -80.2611 303° West 261 300 6,400 2,820 Climbing Miami Center
09:58AM 26.0064 -80.2989 308° West 294 338 8,300 2,700 Climbing Miami Center
09:59AM 26.0381 -80.3761 295° West 288 331 11,000 1,920 Climbing Miami Center
10:00AM 26.0672 -80.4647 290° West 288 331 12,200 1,200 Climbing Miami Center
10:01AM 26.1025 -80.5608 292° West 316 364 13,500 1,380 Climbing Miami Center
10:02AM 26.1417 -80.6614 293° West 339 390 15,000 1,500 Climbing Miami Center
10:03AM 26.2022 -80.7444 309° West 344 396 16,600 1,800 Climbing Miami Center
10:04AM 26.2881 -80.8050 328° Northwest 333 383 18,700 1,860 Climbing Miami Center
10:05AM 26.3619 -80.8539 329° Northwest 338 389 20,400 1,740 Climbing Miami Center
10:06AM 26.4522 -80.9150 329° Northwest 338 389 22,200 1,620 Climbing Miami Center
10:07AM 26.5281 -80.9664 329° Northwest 343 395 23,700 1,560 Climbing Miami Center
10:12AM 26.9458 -81.2467 330° Northwest 354 407 31,900 1,620 Climbing Miami Center
10:13AM 27.0306 -81.2639 318° Northwest  Level FlightAware Approximate
10:13AM 27.0256 -81.3031 328° Northwest 354 407 33,500  Level Miami Center
10:14AM 27.1094 -81.3531 332° Northwest 354 407 35,200 1,680 Climbing Miami Center
10:15AM 27.2019 -81.4056 333° Northwest 342 394 36,900 1,380 Climbing Miami Center
10:16AM 27.2736 -81.4481 332° Northwest 336 387 38,000 540 Climbing Miami Center
10:17AM 27.3742 -81.5036 334° Northwest 347 399 38,000  Level Miami Center
10:18AM 27.4664 -81.5564 333° Northwest 365 420 38,000 300 Level Miami Center
10:19AM 27.5586 -81.6072 334° Northwest 365 420 38,700 720 Climbing Miami Center
10:20AM 27.6397 -81.6819 330° Northwest  Level FlightAware Approximate
10:20AM 27.6467 -81.6553 334° Northwest 365 420 39,500  Level Miami Center
10:21AM 27.7277 -81.7404 330° Northwest  Level FlightAware Approximate
10:21AM 27.7267 -81.7008 333° Northwest 360 414 40,000  Level Miami Center
10:22AM 27.8157 -81.7989 330° Northwest  Level FlightAware Approximate
10:22AM 27.8167 -81.7539 332° Northwest 360 414 40,000  Level Miami Center
10:23AM 27.9086 -81.8047 334° Northwest 360 414 40,000  Level Miami Center
10:25AM 28.0689 -81.8906 335° Northwest 357 411 40,000  Level Jacksonville Center
10:26AM 28.1672 -81.9225 344° North 357 411 40,000  Level Jacksonville Center
10:27AM 28.2717 -81.9450 349° North 368 423 40,000  Level Jacksonville Center
10:28AM 28.3719 -81.9678 349° North 368 423 40,000  Level Jacksonville Center
10:29AM 28.4639 -81.9931 346° North 375 432 40,000  Level Jacksonville Center
10:30AM 28.5664 -82.0156 349° North 375 432 40,000  Level Jacksonville Center
10:31AM 28.6689 -82.0383 349° North 375 432 40,000  Level Jacksonville Center
10:32AM 28.7836 -82.0611 350° North 375 432 40,000  Level Jacksonville Center
10:33AM 28.8883 -82.0839 349° North 375 432 40,000  Level Jacksonville Center
10:34AM 28.9864 -82.1117 346° North 375 432 40,000  Level Jacksonville Center
10:35AM 29.0889 -82.1394 347° North 370 426 40,000  Level Jacksonville Center
10:36AM 29.1936 -82.1647 348° North 376 433 40,000  Level Jacksonville Center
10:37AM 29.2958 -82.1853 350° North 376 433 40,000  Level Jacksonville Center
10:38AM 29.4003 -82.2083 349° North 376 433 40,000 60 Level Jacksonville Center
10:39AM 29.5050 -82.2339 348° North 376 433 40,200 300 Climbing Jacksonville Center
10:40AM 29.6072 -82.2572 349° North 371 427 40,700 360 Climbing Jacksonville Center
10:41AM 29.7097 -82.2781 350° North 371 427 41,000 120 Climbing Jacksonville Center
10:42AM 29.8122 -82.3036 348° North 371 427 41,000  Level Jacksonville Center
10:43AM 29.8917 -82.3489 334° Northwest 366 421 41,000  Level Jacksonville Center
10:44AM 29.9794 -82.4083 330° Northwest 361 415 41,000  Level Jacksonville Center
10:45AM 30.0694 -82.4703 329° Northwest 366 421 41,000  Level Jacksonville Center
10:46AM 30.1617 -82.5178 336° Northwest 366 421 41,000  Level Jacksonville Center
10:47AM 30.2681 -82.5414 349° North 371 427 41,000  Level Jacksonville Center
10:48AM 30.3767 -82.5650 349° North 377 434 41,000  Level Jacksonville Center
10:49AM 30.4792 -82.5864 350° North 382 440 41,000  Level Jacksonville Center
10:50AM 30.5878 -82.6128 348° North 382 440 41,000  Level Jacksonville Center
10:51AM 30.6964 -82.6364 349° North 388 447 41,000  Level Jacksonville Center
10:52AM 30.8028 -82.6603 349° North 393 452 41,000  Level Jacksonville Center
10:53AM 30.9072 -82.6844 349° North 393 452 41,000  Level Jacksonville Center
10:54AM 31.0139 -82.7058 350° North 393 452 41,000  Level Jacksonville Center
10:55AM 31.1328 -82.7250 352° North 393 452 41,000  Level Jacksonville Center
10:56AM 31.2289 -82.7492 348° North 393 452 41,000  Level Jacksonville Center
10:57AM 31.3314 -82.7758 347° North 388 447 41,000  Level Jacksonville Center
10:59AM 31.5611 -82.8253 350° North 390 449 41,000  Level Atlanta Center
11:00AM 31.6678 -82.8481 350° North 390 449 41,000  Level Atlanta Center
11:01AM 31.7725 -82.8736 348° North 390 449 41,000  Level Atlanta Center
11:02AM 31.8769 -82.8967 349° North 390 449 41,000  Level Atlanta Center
11:03AM 31.9753 -82.9200 349° North 390 449 41,000  Level Atlanta Center
11:04AM 32.0819 -82.9456 349° North 390 449 41,000  Level Atlanta Center
11:05AM 32.1886 -82.9714 348° North 390 449 41,000  Level Atlanta Center
11:06AM 32.2933 -82.9969 348° North 390 449 41,000  Level Atlanta Center
11:07AM 32.4019 -83.0203 350° North 395 455 41,000  Level Atlanta Center
11:08AM 32.5108 -83.0486 348° North 395 455 41,000  Level Atlanta Center
11:09AM 32.6153 -83.0747 348° North 395 455 41,000  Level Atlanta Center
11:10AM 32.7242 -83.1031 348° North 390 449 41,000  Level Atlanta Center
11:11AM 32.8286 -83.1267 349° North 390 449 41,000  Level Atlanta Center
11:12AM 32.9372 -83.1528 349° North 390 449 41,000  Level Atlanta Center
11:13AM 33.0461 -83.1789 349° North 390 449 41,000  Level Atlanta Center
11:14AM 33.1569 -83.2050 349° North 396 456 41,000  Level Atlanta Center
11:15AM 33.2656 -83.2314 349° North 396 456 41,000  Level Atlanta Center
11:16AM 33.3764 -83.2578 349° North 396 456 41,000  Level Atlanta Center
11:17AM 33.4850 -83.2842 349° North 396 456 41,000  Level Atlanta Center
11:18AM 33.5939 -83.3106 349° North 396 456 41,000  Level Atlanta Center
11:19AM 33.7131 -83.3394 349° North 396 456 41,000  Level Atlanta Center
11:20AM 33.8236 -83.3661 349° North 396 456 41,000  Level Atlanta Center
11:21AM 33.9325 -83.3928 349° North 401 461 41,000  Level Atlanta Center
11:22AM 34.0431 -83.4219 348° North 401 461 41,000  Level Atlanta Center
11:23AM 34.1517 -83.4464 349° North 401 461 41,000  Level Atlanta Center
11:24AM 34.2625 -83.4758 348° North 401 461 41,000  Level Atlanta Center
11:25AM 34.3753 -83.5028 349° North 407 468 41,000  Level Atlanta Center
11:26AM 34.4883 -83.5297 349° North 402 463 41,000  Level Atlanta Center
11:27AM 34.5969 -83.5594 347° North 408 470 41,000  Level Atlanta Center
11:28AM 34.7097 -83.5864 349° North 408 470 41,000  Level Atlanta Center
11:29AM 34.8203 -83.6136 349° North 413 475 41,000  Level Atlanta Center
11:30AM 34.9186 -83.6386 348° North 404 465 41,000  Level Atlanta Center
11:31AM 35.0272 -83.6708 346° North 404 465 41,000  Level Atlanta Center
11:32AM 35.1358 -83.6983 348° North 399 459 41,000  Level Atlanta Center
11:33AM 35.2483 -83.7258 349° North 399 459 41,000  Level Atlanta Center
11:34AM 35.3592 -83.7561 347° North 399 459 41,000  Level Atlanta Center
11:35AM 35.4717 -83.7658 356° North 399 459 41,000  Level Atlanta Center
11:36AM 35.5928 -83.7681 359° North 411 473 41,000  Level Atlanta Center
11:37AM 35.7097 -83.7728 358° North 417 480 41,000  Level Atlanta Center
11:38AM 35.8286 -83.7725 360° North 423 487 41,000  Level Atlanta Center
11:39AM 35.9453 -83.7772 358° North 423 487 41,000  Level Atlanta Center
11:40AM 36.0642 -83.7794 359° North 423 487 41,000  Level Atlanta Center
11:41AM 36.2242 -83.7792 360° North 424 488 41,000 -780 Level Indianapolis Center
11:42AM 36.3431 -83.7806 359° North 424 488 39,200 -2,040 Descending Indianapolis Center
11:43AM 36.4678 -83.7828 359° North 440 506 36,900 -1,620 Descending Indianapolis Center
11:44AM 36.6136 -83.7711 North 463 533 36,000 -480 Descending Indianapolis Center
11:45AM 36.7461 -83.7469 North 472 543 36,000 -360 Level Indianapolis Center
11:46AM 36.8789 -83.7253 North 475 547 35,300 -840 Descending Indianapolis Center
11:47AM 37.0072 -83.7017 North 468 539 34,300 -1,020 Descending Indianapolis Center
11:48AM 37.1400 -83.6783 North 472 543 33,300 -1,620 Descending Indianapolis Center
11:49AM 37.2750 -83.6533 North 482 555 31,000 -2,400 Descending Indianapolis Center
11:50AM 37.4025 -83.6300 North 469 540 28,400 -2,460 Descending Indianapolis Center
11:51AM 37.5300 -83.6072 North 462 532 26,000 -2,160 Descending Indianapolis Center
11:52AM 37.6553 -83.6086 359° North 454 522 24,000 -1,320 Descending Indianapolis Center
11:53AM 37.7772 -83.6853 334° Northwest 422 486 23,400 -840 Descending Indianapolis Center
11:54AM 37.8761 -83.7561 331° Northwest 412 474 22,400 -1,080 Descending Indianapolis Center
11:55AM 37.9753 -83.8256 331° Northwest 410 472 21,200 -1,740 Descending Indianapolis Center
11:56AM 38.0694 -83.8922 331° Northwest 390 449 18,900 -2,280 Descending Indianapolis Center
11:57AM 38.1592 -83.9572 330° Northwest 370 426 16,600 -2,100 Descending Indianapolis Center
11:58AM 38.2461 -84.0197 331° Northwest 362 417 14,700 -1,860 Descending Indianapolis Center
11:59AM 38.3308 -84.0797 331° Northwest 351 404 12,900 -1,800 Descending Indianapolis Center
12:00PM 38.4247 -84.1486 330° Northwest 339 390 11,100 -900 Descending Indianapolis Center
12:01PM 38.5022 -84.2122 327° Northwest 332 382 11,100  Level Indianapolis Center
12:02PM 38.5781 -84.2761 327° Northwest 331 381 11,100 -60 Level Indianapolis Center
12:03PM 38.6503 -84.3358 327° Northwest 326 375 11,000 -60 Descending Indianapolis Center
12:05PM 38.7244 -84.3964 328° Northwest 319 367 11,000 -300 Level Indianapolis Center
12:06PM 38.7975 -84.4578 327° Northwest 316 364 10,400 -1,020 Descending Indianapolis Center
12:07PM 38.8603 -84.5106 327° Northwest 280 322 9,000 -720 Descending Indianapolis Center
12:08PM 38.9372 -84.5331 347° North 286 329 9,000 -540 Level Indianapolis Center
12:09PM 39.0289 -84.5414 356° North 280 322 7,900 -1,440 Descending Indianapolis Center
12:10PM 39.1039 -84.5514 354° North 275 316 6,100 -1,860 Descending Indianapolis Center
12:11PM 39.1731 -84.5617 353° North 261 300 4,200 -1,140 Descending Indianapolis Center
12:12PM 39.2408 -84.5728 353° North 259 298 3,800 -420 Descending Indianapolis Center
12:14PM 39.2167 -84.6500 248° West 172 198 3,000 -300 Descending Cincinnati TRACON
12:15PM 39.1667 -84.6500 180° South 161 185 3,000 -420 Level Cincinnati TRACON
12:16PM 39.1167 -84.6500 180° South 132 152 2,200 -720 Descending Cincinnati TRACON
12:17PM 39.1000 -84.6500 180° South 92 106 1,600 -600 Descending Cincinnati TRACON
12:18PM 39.0667 -84.6500 180° South 102 117 1,100 -600 Descending Cincinnati TRACON
12:20PM 39.0488 -84.6678 180° South  Level Estimated